Flight Track Log - Related Links

Times and Time Zones

All times are in EDT time to prevent confusion due to time zone crossing. See the DAL268 flight status page for this flight to view local times or setup timezone preferences in your user account.

Time Position Orientation Groundspeed Altitude Reporting Facility
EDT Latitude Longitude Course Direction KTS MPH feet Rate Location/Type
Sun 02:23:31 PM 37.6322 -122.3640 31° Northeast 169 194 700  Level FlightAware ADS-B
Sun 02:23:41 PM 37.6387 -122.3570 40° Northeast 179 206 1,200 2,571 Climbing FlightAware ADS-B
Sun 02:23:52 PM 37.6452 -122.3490 44° Northeast 185 213 1,600 1,636 Climbing FlightAware ADS-B
Sun 02:24:03 PM 37.6519 -122.3400 47° Northeast 203 234 1,800 1,385 Climbing FlightAware ADS-B
Sun 02:24:18 PM 37.6617 -122.3260 49° Northeast 222 255 2,200 2,077 Climbing FlightAware ADS-B
Sun 02:24:29 PM 37.6687 -122.3150 51° Northeast 233 268 2,700 2,308 Climbing FlightAware ADS-B
Sun 02:24:44 PM 37.6789 -122.2980 53° Northeast 248 285 3,200 1,800 Climbing FlightAware ADS-B
Sun 02:24:59 PM 37.6903 -122.2790 53° Northeast 273 314 3,600 2,357 Climbing FlightAware ADS-B
Sun 02:25:12 PM 37.7008 -122.2630 50° Northeast 280 322 4,300 3,484 Climbing FlightAware ADS-B
Sun 02:25:30 PM 37.7154 -122.2410 50° Northeast 277 319 5,400 3,447 Climbing FlightAware ADS-B
Sun 02:25:59 PM 37.7401 -122.2050 49° Northeast 284 327 7,000 3,136 Climbing FlightAware ADS-B
Sun 02:26:14 PM 37.7536 -122.1850 50° Northeast 291 335 7,700 2,903 Climbing FlightAware ADS-B
Sun 02:26:30 PM 37.7672 -122.1650 49° Northeast 294 338 8,500 3,176 Climbing FlightAware ADS-B
Sun 02:26:48 PM 37.7838 -122.1400 50° Northeast 298 343 9,500 2,694 Climbing FlightAware ADS-B
Sun 02:27:19 PM 37.8119 -122.1000 48° Northeast 315 362 10,700 1,742 Climbing FlightAware ADS-B
Sun 02:27:50 PM 37.8444 -122.0520 49° Northeast 357 411 11,300 1,174 Climbing FlightAware ADS-B
Sun 02:28:05 PM 37.8608 -122.0280 49° Northeast 375 432 11,600 1,364 Climbing FlightAware ADS-B
Sun 02:28:12 PM 37.8681 -122.0150 55° Northeast 381 438 11,800 1,765 Climbing FlightAware ADS-B
Sun 02:28:22 PM 37.8770 -121.9960 59° Northeast 385 443 12,100 2,143 Climbing FlightAware ADS-B
Sun 02:28:26 PM 37.8798 -121.9880 66° East 387 445 12,300 2,400 Climbing FlightAware ADS-B
Sun 02:28:32 PM 37.8840 -121.9750 68° East 389 448 12,500 2,595 Climbing FlightAware ADS-B
Sun 02:29:03 PM 37.8984 -121.9070 75° East 395 455 13,900 2,506 Climbing FlightAware ADS-B
Sun 02:29:51 PM 37.9203 -121.7980 76° East 397 457 15,800 2,302 Climbing FlightAware ADS-B
Sun 02:30:29 PM 37.9379 -121.7090 76° East 419 482 17,200 2,206 Climbing FlightAware ADS-B
Sun 02:30:59 PM 37.9524 -121.6350 76° East 428 493 18,300 2,129 Climbing FlightAware ADS-B
Sun 02:31:31 PM 37.9677 -121.5570 76° East 435 501 19,400 2,032 Climbing FlightAware ADS-B
Sun 02:32:01 PM 37.9826 -121.4810 76° East 444 511 20,400 1,869 Climbing FlightAware ADS-B
Sun 02:32:32 PM 37.9978 -121.4020 76° East 450 518 21,300 1,875 Climbing FlightAware ADS-B
Sun 02:33:05 PM 38.0142 -121.3180 76° East 457 526 22,400 1,868 Climbing FlightAware ADS-B
Sun 02:34:18 PM 38.0512 -121.1260 76° East 461 531 24,600 1,804 Climbing FlightAware ADS-B
Sun 02:35:48 PM 38.1030 -120.8880 74° East 468 539 27,300 1,826 Climbing FlightAware ADS-B
Sun 02:36:36 PM 38.1330 -120.7620 73° East 463 533 28,800 1,774 Climbing FlightAware ADS-B
Sun 02:37:43 PM 38.1740 -120.5920 73° East 457 526 30,700 1,696 Climbing FlightAware ADS-B
Sun 02:38:08 PM 38.1890 -120.5270 74° East 456 525 31,400 1,569 Climbing FlightAware ADS-B
Sun 02:38:48 PM 38.2140 -120.4240 73° East 453 521 32,400 1,325 Climbing FlightAware ADS-B
Sun 02:39:25 PM 38.2360 -120.3320 73° East 455 524 33,100 1,235 Climbing FlightAware ADS-B
Sun 02:39:56 PM 38.2550 -120.2500 74° East 454 522 33,800 1,433 Climbing FlightAware ADS-B
Sun 02:40:32 PM 38.2720 -120.1766 74° East 451 519 34,700 1,263 Climbing FlightAware ADS-B
Sun 02:41:12 PM 38.3004 -120.0553 73° East 454 522 35,400 848 Climbing FlightAware ADS-B
Sun 02:42:11 PM 38.3350 -119.9070 73° East 461 531 36,100 667 Climbing FlightAware ADS-B
Sun 02:42:51 PM 38.3600 -119.8000 73° East 467 537 36,500 682 Climbing FlightAware ADS-B
Sun 02:43:39 PM 38.3887 -119.6735 74° East 471 542 37,100 702 Climbing FlightAware ADS-B
Sun 02:44:25 PM 38.4163 -119.5532 74° East 476 548 37,600 600 Climbing FlightAware ADS-B
Sun 02:45:19 PM 38.4500 -119.4040 74° East 478 550 38,100 594 Climbing FlightAware ADS-B
Sun 02:46:06 PM 38.4787 -119.2777 74° East 481 554 38,600 628 Climbing FlightAware ADS-B
Sun 02:46:45 PM 38.5010 -119.1695 75° East 481 554 39,000 338 Climbing FlightAware ADS-B
Sun 02:47:17 PM 38.5124 -119.0830 80° East 483 556 39,000  Level FlightAware ADS-B
Sun 02:47:56 PM 38.5237 -118.9719 83° East 484 557 39,000  Level FlightAware ADS-B
Sun 02:48:29 PM 38.5330 -118.8776 83° East 484 557 39,000  Level FlightAware ADS-B
Sun 02:49:56 PM 38.5570 -118.6330 83° East 480 552 39,000  Level FlightAware ADS-B
Sun 02:50:23 PM 38.5640 -118.5580 83° East 479 551 39,000  Level FlightAware ADS-B
Sun 02:51:04 PM 38.5750 -118.4430 83° East 480 552 39,000  Level FlightAware ADS-B
Sun 02:51:41 PM 38.5850 -118.3400 83° East 479 551 39,000  Level FlightAware ADS-B
Sun 02:52:57 PM 38.6050 -118.1280 83° East 477 549 39,000  Level FlightAware ADS-B
Sun 02:53:32 PM 38.6140 -118.0310 83° East 477 549 39,000  Level FlightAware ADS-B
Sun 02:54:07 PM 38.6220 -117.9440 83° East 477 549 39,000  Level FlightAware ADS-B
Sun 02:54:41 PM 38.6300 -117.8630 83° East 477 549 39,000  Level FlightAware ADS-B
Sun 02:55:28 PM 38.6410 -117.7510 83° East 477 549 39,000  Level FlightAware ADS-B
Sun 02:55:52 PM 38.6460 -117.6940 84° East 477 549 39,000  Level FlightAware ADS-B
Sun 02:56:40 PM 38.6570 -117.5790 83° East 477 549 39,000  Level FlightAware ADS-B
Sun 02:57:17 PM 38.6660 -117.4910 83° East 477 549 39,000  Level FlightAware ADS-B
Sun 02:57:54 PM 38.6740 -117.4030 83° East 477 549 39,000  Level FlightAware ADS-B
Sun 02:58:30 PM 38.6820 -117.3170 83° East 477 549 39,000  Level FlightAware ADS-B
Sun 02:59:18 PM 38.6930 -117.2020 83° East 477 549 39,000  Level FlightAware ADS-B
Sun 03:00:28 PM 38.7400 -116.8900 79° East 480 552 39,000  Level FlightAware ADS-B
Sun 03:01:28 PM 38.7590 -116.7470 80° East 480 552 39,000  Level FlightAware ADS-B
Sun 03:02:05 PM 38.7710 -116.6580 80° East 480 552 39,000  Level FlightAware ADS-B
Sun 03:02:56 PM 38.7880 -116.5370 80° East 480 552 39,000  Level FlightAware ADS-B
Sun 03:03:32 PM 38.8000 -116.4510 80° East 480 552 39,000  Level FlightAware ADS-B
Sun 03:04:33 PM 38.8200 -116.3050 80° East 480 552 39,000  Level FlightAware ADS-B
Sun 03:05:09 PM 38.8320 -116.2190 80° East 480 552 39,000  Level FlightAware ADS-B
Sun 03:05:44 PM 38.8430 -116.1360 80° East 480 552 39,000  Level FlightAware ADS-B
Sun 03:06:20 PM 38.8550 -116.0500 80° East 480 552 39,000  Level FlightAware ADS-B
Sun 03:06:57 PM 38.8670 -115.9620 80° East 480 552 39,000  Level FlightAware ADS-B
Sun 03:07:33 PM 38.8790 -115.8760 80° East 480 552 39,000  Level FlightAware ADS-B
Sun 03:08:34 PM 38.8990 -115.7300 80° East 480 552 39,000  Level FlightAware ADS-B
Sun 03:09:10 PM 38.9110 -115.6440 80° East 480 552 39,000  Level FlightAware ADS-B
Sun 03:09:44 PM 38.9220 -115.5630 80° East 480 552 39,000  Level FlightAware ADS-B
Sun 03:09:54 PM 38.9250 -115.5390 81° East 480 552 39,000  Level FlightAware ADS-B
Sun 03:10:41 PM 38.9856 -115.1458 81° East 495 570 39,000  Level Salt Lake Center
Sun 03:11:43 PM 39.0078 -114.9733 81° East 493 567 39,000  Level Salt Lake Center
Sun 03:17:18 PM 39.1333 -113.9740 81° East 500 575 39,000  Level FlightAware ADS-B
Sun 03:17:52 PM 39.1456 -113.8726 81° East 499 574 39,000  Level FlightAware ADS-B
Sun 03:18:31 PM 39.1597 -113.7556 81° East 501 577 39,000  Level FlightAware ADS-B
Sun 03:19:22 PM 39.1775 -113.6060 81° East 503 579 39,000  Level FlightAware ADS-B
Sun 03:19:53 PM 39.1883 -113.5136 81° East 502 578 39,000  Level FlightAware ADS-B
Sun 03:20:00 PM 39.1909 -113.4915 81° East 501 577 39,000  Level FlightAware ADS-B
Sun 03:20:36 PM 39.2025 -113.3923 81° East 502 578 39,000  Level FlightAware ADS-B
Sun 03:21:16 PM 39.2169 -113.2682 81° East 501 577 39,000  Level FlightAware ADS-B
Sun 03:21:46 PM 39.2271 -113.1798 82° East 502 578 39,000  Level FlightAware ADS-B
Sun 03:21:57 PM 39.2307 -113.1476 82° East 502 578 39,000  Level FlightAware ADS-B
Sun 03:21:59 PM 39.2315 -113.1410 81° East 502 578 39,000  Level FlightAware ADS-B
Sun 03:22:28 PM 39.2413 -113.0546 82° East 502 578 39,000  Level FlightAware ADS-B
Sun 03:22:32 PM 39.2426 -113.0440 81° East 503 579 39,000  Level FlightAware ADS-B
Sun 03:23:01 PM 39.2520 -112.9599 82° East 502 578 39,000  Level FlightAware ADS-B
Sun 03:23:02 PM 39.2527 -112.9540 81° East 502 578 39,000  Level FlightAware ADS-B
Sun 03:23:32 PM 39.2628 -112.8640 82° East 503 579 39,000  Level FlightAware ADS-B
Sun 03:23:34 PM 39.2622 -112.8691 262° West 503 579 39,000  Level FlightAware ADS-B
Sun 03:23:37 PM 39.2639 -112.8541 82° East 503 579 39,000  Level FlightAware ADS-B
Sun 03:24:03 PM 39.2726 -112.7750 82° East 503 579 39,000  Level FlightAware ADS-B
Sun 03:24:08 PM 39.2745 -112.7581 82° East 502 578 39,000  Level FlightAware ADS-B
Sun 03:24:38 PM 39.2842 -112.6700 82° East 502 578 39,000  Level FlightAware ADS-B
Sun 03:24:39 PM 39.2844 -112.6682 82° East 502 578 39,000  Level FlightAware ADS-B
Sun 03:25:09 PM 39.2941 -112.5800 82° East 502 578 39,000  Level FlightAware ADS-B
Sun 03:25:18 PM 39.2982 -112.5507 80° East 502 578 39,000  Level FlightAware ADS-B
Sun 03:25:35 PM 39.3077 -112.5030 76° East 501 577 39,000  Level FlightAware ADS-B
Sun 03:25:39 PM 39.3100 -112.4943 71° East 501 577 39,000  Level FlightAware ADS-B
Sun 03:25:55 PM 39.3235 -112.4490 69° East 499 574 39,000  Level FlightAware ADS-B
Sun 03:26:17 PM 39.3450 -112.3880 65° Northeast 498 573 39,000  Level FlightAware ADS-B
Sun 03:26:18 PM 39.3459 -112.3851 68° East 498 573 39,000  Level FlightAware ADS-B
Sun 03:26:50 PM 39.3774 -112.3000 64° Northeast 497 572 39,000  Level FlightAware ADS-B
Sun 03:26:59 PM 39.3864 -112.2758 64° Northeast 493 567 39,000  Level FlightAware ADS-B
Sun 03:27:08 PM 39.3951 -112.2523 64° Northeast 493 567 39,000  Level FlightAware ADS-B
Sun 03:27:21 PM 39.4086 -112.2160 64° Northeast 496 571 39,000  Level FlightAware ADS-B
Sun 03:27:39 PM 39.4263 -112.1683 64° Northeast 497 572 39,000  Level FlightAware ADS-B
Sun 03:27:52 PM 39.4384 -112.1350 65° Northeast 496 571 39,000  Level FlightAware ADS-B
Sun 03:28:10 PM 39.4564 -112.0865 64° Northeast 496 571 39,000  Level FlightAware ADS-B
Sun 03:28:22 PM 39.4684 -112.0540 64° Northeast 497 572 39,000  Level FlightAware ADS-B
Sun 03:28:40 PM 39.4862 -112.0051 65° Northeast 497 572 39,000  Level FlightAware ADS-B
Sun 03:28:53 PM 39.4982 -111.9720 65° Northeast 496 571 39,000  Level FlightAware ADS-B
Sun 03:29:10 PM 39.5155 -111.9247 65° Northeast 497 572 39,000  Level FlightAware ADS-B
Sun 03:29:23 PM 39.5277 -111.8910 65° Northeast 497 572 39,000  Level FlightAware ADS-B
Sun 03:29:41 PM 39.5455 -111.8419 65° Northeast 497 572 39,000  Level FlightAware ADS-B
Sun 03:29:53 PM 39.5573 -111.8090 65° Northeast 497 572 39,000  Level FlightAware ADS-B
Sun 03:30:11 PM 39.5751 -111.7601 65° Northeast 497 572 39,000  Level FlightAware ADS-B
Sun 03:30:24 PM 39.5872 -111.7270 65° Northeast 497 572 39,000  Level FlightAware ADS-B
Sun 03:30:42 PM 39.6047 -111.6781 65° Northeast 497 572 39,000  Level FlightAware ADS-B
Sun 03:30:55 PM 39.6172 -111.6430 65° Northeast 497 572 39,000  Level FlightAware ADS-B
Sun 03:31:14 PM 39.6348 -111.5943 65° Northeast 497 572 39,000  Level FlightAware ADS-B
Sun 03:31:25 PM 39.6466 -111.5610 65° Northeast 497 572 39,000  Level FlightAware ADS-B
Sun 03:31:45 PM 39.6662 -111.5069 65° Northeast 497 572 39,000  Level FlightAware ADS-B
Sun 03:31:55 PM 39.6757 -111.4800 65° Northeast 497 572 39,000  Level FlightAware ADS-B
Sun 03:32:23 PM 39.7015 -111.4081 65° Northeast 497 572 39,000  Level FlightAware ADS-B
Sun 03:32:26 PM 39.7050 -111.3980 66° East 497 572 39,000  Level FlightAware ADS-B
Sun 03:32:54 PM 39.7321 -111.3223 65° Northeast 497 572 39,000  Level FlightAware ADS-B
Sun 03:32:58 PM 39.7360 -111.3110 66° East 496 571 39,000  Level FlightAware ADS-B
Sun 03:33:28 PM 39.7652 -111.2290 65° Northeast 495 570 39,000  Level FlightAware ADS-B
Sun 03:33:41 PM 39.7767 -111.1968 65° Northeast 496 571 39,000  Level FlightAware ADS-B
Sun 03:33:59 PM 39.7946 -111.1460 65° Northeast 496 571 39,000  Level FlightAware ADS-B
Sun 03:34:18 PM 39.8119 -111.0974 65° Northeast 496 571 39,000  Level FlightAware ADS-B
Sun 03:34:29 PM 39.8237 -111.0640 65° Northeast 496 571 39,000  Level FlightAware ADS-B
Sun 03:34:49 PM 39.8421 -111.0116 65° Northeast 496 571 39,000  Level FlightAware ADS-B
Sun 03:35:00 PM 39.8524 -110.9820 66° East 496 571 39,000  Level FlightAware ADS-B
Sun 03:35:30 PM 39.8813 -110.9000 65° Northeast 497 572 39,000  Level FlightAware ADS-B
Sun 03:36:04 PM 39.9132 -110.8090 65° Northeast 496 571 39,000  Level FlightAware ADS-B
Sun 03:36:05 PM 39.9137 -110.8078 62° Northeast 496 571 39,000  Level FlightAware ADS-B
Sun 03:36:35 PM 39.9430 -110.7240 65° Northeast 496 571 39,000  Level FlightAware ADS-B
Sun 03:37:16 PM 39.9817 -110.6128 66° East 497 572 39,000  Level FlightAware ADS-B
Sun 03:37:51 PM 40.0140 -110.5195 66° East 497 572 39,000  Level FlightAware ADS-B
Sun 03:38:24 PM 40.0458 -110.4276 66° East 496 571 39,000  Level FlightAware ADS-B (KGUC)
Sun 03:38:59 PM 40.0781 -110.3340 66° East 496 571 39,000  Level FlightAware ADS-B
Sun 03:39:32 PM 40.1054 -110.2544 66° East 496 571 39,000  Level FlightAware ADS-B (KGUC)
Sun 03:40:04 PM 40.1385 -110.1558 66° East 496 571 39,000  Level FlightAware ADS-B (KGUC)
Sun 03:40:40 PM 40.1651 -110.0555 71° East 497 572 39,000  Level FlightAware ADS-B
Sun 03:41:10 PM 40.1851 -109.9679 73° East 497 572 39,000  Level FlightAware ADS-B
Sun 03:41:42 PM 40.2044 -109.8806 74° East 498 573 39,000  Level FlightAware ADS-B
Sun 03:42:12 PM 40.2250 -109.7874 74° East 499 574 39,000  Level FlightAware ADS-B
Sun 03:42:52 PM 40.2501 -109.6728 74° East 498 573 39,000  Level FlightAware ADS-B (KGUC)
Sun 03:43:25 PM 40.2694 -109.5849 74° East 498 573 39,000  Level FlightAware ADS-B
Sun 03:44:01 PM 40.2942 -109.4716 74° East 498 573 39,000  Level FlightAware ADS-B (KGUC)
Sun 03:44:35 PM 40.3156 -109.3733 74° East 499 574 39,000  Level FlightAware ADS-B
Sun 03:45:08 PM 40.3363 -109.2785 74° East 498 573 39,000  Level FlightAware ADS-B
Sun 03:45:38 PM 40.3551 -109.1910 74° East 498 573 39,000  Level FlightAware ADS-B
Sun 03:46:18 PM 40.3797 -109.0770 74° East 496 571 39,000  Level FlightAware ADS-B
Sun 03:46:48 PM 40.3980 -108.9915 74° East 496 571 39,000  Level FlightAware ADS-B
Sun 03:47:19 PM 40.4173 -108.9005 74° East 495 570 39,000  Level FlightAware ADS-B
Sun 03:47:58 PM 40.4416 -108.7863 74° East 494 568 39,000  Level FlightAware ADS-B
Sun 03:48:30 PM 40.4592 -108.7031 74° East 493 567 39,000  Level FlightAware ADS-B
Sun 03:49:00 PM 40.4784 -108.6116 75° East 493 567 39,000  Level FlightAware ADS-B
Sun 03:49:32 PM 40.4969 -108.5233 75° East 491 565 39,000  Level FlightAware ADS-B
Sun 03:50:06 PM 40.5183 -108.4204 75° East 492 566 39,000  Level FlightAware ADS-B
Sun 03:50:36 PM 40.5366 -108.3320 75° East 493 567 39,000  Level FlightAware ADS-B
Sun 03:51:21 PM 40.5630 -108.2040 75° East 490 564 39,000  Level FlightAware ADS-B
Sun 03:51:49 PM 40.5791 -108.1255 75° East 491 565 39,000  Level FlightAware ADS-B
Sun 03:52:19 PM 40.5970 -108.0378 75° East 492 566 39,000  Level FlightAware ADS-B
Sun 03:52:49 PM 40.6151 -107.9492 75° East 492 566 39,000  Level FlightAware ADS-B
Sun 03:53:21 PM 40.6337 -107.8572 75° East 491 565 39,000  Level FlightAware ADS-B
Sun 03:53:51 PM 40.6512 -107.7703 75° East 492 566 39,000  Level FlightAware ADS-B
Sun 03:54:23 PM 40.6687 -107.6834 75° East 492 566 39,000  Level FlightAware ADS-B
Sun 03:54:53 PM 40.6871 -107.5914 75° East 492 566 39,000  Level FlightAware ADS-B
Sun 03:55:25 PM 40.7052 -107.5007 75° East 492 566 39,000  Level FlightAware ADS-B
Sun 03:55:55 PM 40.7226 -107.4130 75° East 492 566 39,000  Level FlightAware ADS-B
Sun 03:56:27 PM 40.7400 -107.3251 75° East 492 566 39,000  Level FlightAware ADS-B
Sun 03:57:30 PM 40.7547 -107.2505 75° East 491 565 39,000  Level FlightAware ADS-B (KANK)
Sun 03:58:17 PM 40.7914 -107.0622 75° East 492 566 39,000  Level FlightAware ADS-B (KANK)
Sun 03:59:04 PM 40.8287 -106.8694 76° East 491 565 39,000  Level FlightAware ADS-B (KANK)
Sun 03:59:56 PM 40.8580 -106.7170 76° East 490 564 39,000  Level FlightAware ADS-B
Sun 04:00:39 PM 40.8817 -106.5917 76° East 492 566 39,000 -81 Level FlightAware ADS-B (KANK)
Sun 04:01:10 PM 40.8992 -106.4991 76° East 493 567 38,900  Descending FlightAware ADS-B (KANK)
Sun 04:01:45 PM 40.9190 -106.3960 76° East 493 567 39,000 82 Climbing FlightAware ADS-B
Sun 04:02:23 PM 40.9400 -106.2850 76° East 496 571 39,000  Level FlightAware ADS-B
Sun 04:03:31 PM 40.9760 -106.0870 76° East 497 572 39,000  Level FlightAware ADS-B
Sun 04:04:16 PM 41.0000 -105.9590 76° East 491 565 39,000  Level FlightAware ADS-B
Sun 04:04:56 PM 41.0210 -105.8440 76° East 495 570 39,000  Level FlightAware ADS-B
Sun 04:05:31 PM 41.0410 -105.7350 76° East 497 572 39,000  Level FlightAware ADS-B
Sun 04:06:30 PM 41.0720 -105.5610 77° East 498 573 39,000  Level FlightAware ADS-B
Sun 04:07:14 PM 41.0960 -105.4270 77° East 500 575 39,000  Level FlightAware ADS-B
Sun 04:07:44 PM 41.1110 -105.3470 76° East 498 573 39,000  Level FlightAware ADS-B
Sun 04:08:17 PM 41.1295 -105.2398 77° East 500 575 39,000  Level FlightAware ADS-B (KANK)
Sun 04:08:54 PM 41.1480 -105.1340 77° East 498 573 39,000  Level FlightAware ADS-B
Sun 04:10:01 PM 41.1830 -104.9330 77° East 496 571 39,000  Level FlightAware ADS-B
Sun 04:10:32 PM 41.1980 -104.8450 77° East 494 568 39,000  Level FlightAware ADS-B
Sun 04:11:40 PM 41.2412 -104.6447 74° East 491 565 39,000  Level FlightAware ADS-B (KANK)
Sun 04:12:36 PM 41.2780 -104.4870 73° East 489 563 39,000  Level FlightAware ADS-B
Sun 04:13:27 PM 41.3140 -104.3360 72° East 488 562 39,000  Level FlightAware ADS-B
Sun 04:13:59 PM 41.3350 -104.2460 73° East 488 562 39,000  Level FlightAware ADS-B
Sun 04:14:31 PM 41.3560 -104.1530 73° East 489 563 39,000  Level FlightAware ADS-B
Sun 04:15:15 PM 41.3850 -104.0300 73° East 490 564 39,000  Level FlightAware ADS-B
Sun 04:15:44 PM 41.4040 -103.9450 73° East 490 564 39,000  Level FlightAware ADS-B
Sun 04:16:23 PM 41.4310 -103.8300 73° East 491 565 39,000  Level FlightAware ADS-B
Sun 04:17:02 PM 41.4560 -103.7190 73° East 490 564 39,000  Level FlightAware ADS-B
Sun 04:18:08 PM 41.4990 -103.5290 73° East 490 564 39,000  Level FlightAware ADS-B
Sun 04:18:53 PM 41.5290 -103.3970 73° East 491 565 39,000  Level FlightAware ADS-B
Sun 04:19:28 PM 41.5510 -103.2980 73° East 491 565 39,000  Level FlightAware ADS-B
Sun 04:20:06 PM 41.5750 -103.1890 74° East 492 566 39,000  Level FlightAware ADS-B
Sun 04:20:48 PM 41.6020 -103.0660 74° East 491 565 39,000  Level FlightAware ADS-B
Sun 04:21:09 PM 41.6160 -103.0040 73° East 491 565 39,000  Level FlightAware ADS-B
Sun 04:21:59 PM 41.6440 -102.8800 73° East 491 565 39,000  Level FlightAware ADS-B
Sun 04:22:35 PM 41.6640 -102.7910 73° East 491 565 39,000  Level FlightAware ADS-B
Sun 04:23:02 PM 41.6870 -102.6750 75° East 492 566 39,000  Level FlightAware ADS-B
Sun 04:23:28 PM 41.7040 -102.6000 73° East 491 565 39,000  Level FlightAware ADS-B
Sun 04:24:10 PM 41.7300 -102.4790 74° East 490 564 39,000  Level FlightAware ADS-B
Sun 04:25:01 PM 41.7620 -102.3270 74° East 490 564 39,000  Level FlightAware ADS-B
Sun 04:25:19 PM 41.7730 -102.2780 73° East 490 564 39,000  Level FlightAware ADS-B
Sun 04:26:09 PM 41.7990 -102.1540 74° East 490 564 39,000  Level FlightAware ADS-B
Sun 04:26:45 PM 41.8180 -102.0640 74° East 490 564 39,000  Level FlightAware ADS-B
Sun 04:27:32 PM 41.8430 -101.9480 74° East 490 564 39,000  Level FlightAware ADS-B
Sun 04:28:08 PM 41.8620 -101.8580 74° East 490 564 39,000  Level FlightAware ADS-B
Sun 04:28:47 PM 41.8830 -101.7610 74° East 490 564 39,000  Level FlightAware ADS-B
Sun 04:29:24 PM 41.9030 -101.6690 74° East 490 564 39,000  Level FlightAware ADS-B
Sun 04:30:21 PM 41.9330 -101.5270 74° East 490 564 39,000  Level FlightAware ADS-B
Sun 04:30:58 PM 41.9520 -101.4350 74° East 490 564 39,000  Level FlightAware ADS-B
Sun 04:31:20 PM 41.9640 -101.3800 74° East 490 564 39,000  Level FlightAware ADS-B
Sun 04:31:56 PM 41.9830 -101.2900 74° East 490 564 39,000  Level FlightAware ADS-B
Sun 04:32:44 PM 42.0090 -101.1710 74° East 490 564 39,000  Level FlightAware ADS-B
Sun 04:33:20 PM 42.0280 -101.0810 74° East 490 564 39,000  Level FlightAware ADS-B
Sun 04:33:56 PM 42.0470 -100.9910 74° East 490 564 39,000  Level FlightAware ADS-B
Sun 04:34:44 PM 42.0720 -100.8710 74° East 490 564 39,000  Level FlightAware ADS-B
Sun 04:35:08 PM 42.0850 -100.8120 73° East 490 564 39,000  Level FlightAware ADS-B
Sun 04:36:14 PM 42.1603 -100.3608 73° East 494 568 39,000  Level Denver Center
Sun 04:41:24 PM 42.3370 -99.4280 73° East 493 567 39,000  Level FlightAware ADS-B
Sun 04:42:00 PM 42.3570 -99.3170 76° East 492 566 39,000  Level FlightAware ADS-B
Sun 04:42:28 PM 42.3730 -99.2310 76° East 492 566 39,000  Level FlightAware ADS-B
Sun 04:43:29 PM 42.4050 -99.0540 76° East 490 564 39,000  Level FlightAware ADS-B
Sun 04:44:08 PM 42.4260 -98.9340 77° East 490 564 39,000  Level FlightAware ADS-B
Sun 04:45:16 PM 42.4620 -98.7320 76° East 489 563 39,000  Level FlightAware ADS-B
Sun 04:45:55 PM 42.4740 -98.6140 82° East 488 562 39,000  Level FlightAware ADS-B
Sun 04:46:36 PM 42.4810 -98.4880 86° East 487 560 39,000  Level FlightAware ADS-B
Sun 04:47:21 PM 42.4870 -98.3570 86° East 486 559 39,000  Level FlightAware ADS-B
Sun 04:47:54 PM 42.4920 -98.2500 86° East 485 558 39,000  Level FlightAware ADS-B
Sun 04:48:29 PM 42.4970 -98.1460 86° East 485 558 39,000  Level FlightAware ADS-B
Sun 04:49:15 PM 42.5030 -98.0070 87° East 486 559 39,000  Level FlightAware ADS-B
Sun 04:49:44 PM 42.5070 -97.9170 87° East 486 559 39,000  Level FlightAware ADS-B
Sun 04:50:33 PM 42.5140 -97.7710 86° East 486 559 39,000  Level FlightAware ADS-B
Sun 04:51:05 PM 42.5180 -97.6701 87° East 487 560 39,000  Level FlightAware ADS-B
Sun 04:52:01 PM 42.5199 -97.6273 87° East 487 560 39,000  Level FlightAware ADS-B
Sun 04:52:41 PM 42.5300 -97.3817 87° East 487 560 39,000  Level FlightAware ADS-B
Sun 04:53:17 PM 42.5340 -97.2690 87° East 486 559 39,000  Level FlightAware ADS-B
Sun 04:53:46 PM 42.5377 -97.1827 87° East 487 560 39,000  Level FlightAware ADS-B
Sun 04:54:52 PM 42.5409 -97.0960 87° East 487 560 39,000  Level FlightAware ADS-B
Sun 04:55:53 PM 42.5478 -96.9112 87° East 487 560 39,000  Level FlightAware ADS-B
Sun 04:57:22 PM 42.5597 -96.5614 87° East 489 563 39,000  Level FlightAware ADS-B
Sun 04:58:12 PM 42.5660 -96.3720 87° East 489 563 39,000  Level FlightAware ADS-B
Sun 04:58:52 PM 42.5693 -96.2512 88° East 490 564 39,000  Level FlightAware ADS-B
Sun 04:59:57 PM 42.5750 -96.0500 88° East 491 565 39,000  Level FlightAware ADS-B
Sun 05:00:28 PM 42.5780 -95.9550 88° East 492 566 39,000  Level FlightAware ADS-B
Sun 05:01:03 PM 42.5810 -95.8480 88° East 492 566 39,000  Level FlightAware ADS-B
Sun 05:01:44 PM 42.5840 -95.7230 88° East 492 566 39,000  Level FlightAware ADS-B
Sun 05:02:19 PM 42.5866 -95.6158 88° East 493 567 39,000  Level FlightAware ADS-B
Sun 05:02:55 PM 42.5890 -95.5050 88° East 493 567 39,000  Level FlightAware ADS-B
Sun 05:03:45 PM 42.5928 -95.3472 88° East 495 570 39,000  Level FlightAware ADS-B
Sun 05:04:53 PM 42.5970 -95.1420 88° East 497 572 39,000  Level FlightAware ADS-B
Sun 05:05:36 PM 42.6000 -95.0060 88° East 498 573 39,000  Level FlightAware ADS-B
Sun 05:06:07 PM 42.6020 -94.9060 88° East 499 574 39,000  Level FlightAware ADS-B
Sun 05:06:44 PM 42.6040 -94.7930 89° East 500 575 39,000  Level FlightAware ADS-B
Sun 05:07:18 PM 42.6050 -94.6860 89° East 501 577 39,000  Level FlightAware ADS-B
Sun 05:08:00 PM 42.6070 -94.5550 89° East 503 579 39,000  Level FlightAware ADS-B
Sun 05:08:34 PM 42.6090 -94.4500 88° East 504 580 39,000  Level FlightAware ADS-B
Sun 05:09:07 PM 42.6100 -94.3440 89° East 505 581 39,000  Level FlightAware ADS-B
Sun 05:09:37 PM 42.6120 -94.2490 88° East 505 581 39,000  Level FlightAware ADS-B
Sun 05:10:19 PM 42.6122 -94.1922 90° East 506 582 39,000  Level FlightAware ADS-B
Sun 05:11:01 PM 42.6130 -94.0856 89° East 506 582 39,000  Level FlightAware ADS-B
Sun 05:12:00 PM 42.6142 -93.9191 89° East 506 582 39,000  Level FlightAware ADS-B
Sun 05:13:17 PM 42.6160 -93.5540 89° East 508 585 39,000  Level FlightAware ADS-B
Sun 05:13:57 PM 42.6160 -93.4290 90° East 509 586 39,000  Level FlightAware ADS-B
Sun 05:14:31 PM 42.6170 -93.3200 89° East 509 586 39,000  Level FlightAware ADS-B
Sun 05:15:09 PM 42.6170 -93.1960 90° East 509 586 39,000  Level FlightAware ADS-B
Sun 05:15:26 PM 42.6167 -93.1572 91° East 510 587 39,000  Level FlightAware ADS-B (LPVM)
Sun 05:16:07 PM 42.6166 -93.0102 90° East 510 587 39,000  Level FlightAware ADS-B (LPVM)
Sun 05:16:47 PM 42.6160 -92.8820 90° East 510 587 39,000  Level FlightAware ADS-B
Sun 05:17:25 PM 42.6161 -92.7839 90° East 511 588 39,000  Level FlightAware ADS-B (LPVM)
Sun 05:18:27 PM 42.6151 -92.5658 90° East 517 595 39,000  Level FlightAware ADS-B (LPVM)
Sun 05:19:06 PM 42.6143 -92.4330 90° East 518 596 39,000  Level FlightAware ADS-B (LPVM)
Sun 05:19:48 PM 42.6134 -92.3048 91° East 518 596 39,000  Level FlightAware ADS-B (LPVM)
Sun 05:20:21 PM 42.6128 -92.2263 91° East 519 597 39,000  Level FlightAware ADS-B (LPVM)
Sun 05:21:08 PM 42.6112 -92.0497 91° East 519 597 39,000  Level FlightAware ADS-B (LPVM)
Sun 05:21:48 PM 42.6098 -91.9116 91° East 517 595 39,000  Level FlightAware ADS-B (LPVM)
Sun 05:22:27 PM 42.6082 -91.7827 91° East 515 593 39,000  Level FlightAware ADS-B (LPVM)
Sun 05:23:07 PM 42.6066 -91.6545 91° East 514 592 39,000  Level FlightAware ADS-B (LPVM)
Sun 05:23:48 PM 42.6048 -91.5195 91° East 513 590 39,000  Level FlightAware ADS-B (LPVM)
Sun 05:24:28 PM 42.6030 -91.3963 91° East 513 590 39,000  Level FlightAware ADS-B (LPVM)
Sun 05:25:29 PM 42.5998 -91.1979 91° East 512 589 39,000  Level FlightAware ADS-B (LPVM)
Sun 05:26:08 PM 42.5975 -91.0704 91° East 512 589 39,000  Level FlightAware ADS-B (LPVM)
Sun 05:26:49 PM 42.5953 -90.9533 91° East 512 589 39,000  Level FlightAware ADS-B (LPVM)
Sun 05:27:29 PM 42.5926 -90.8207 92° East 512 589 39,000  Level FlightAware ADS-B (LPVM)
Sun 05:28:08 PM 42.5901 -90.7010 92° East 513 590 39,000  Level FlightAware ADS-B (LPVM)
Sun 05:28:56 PM 42.5860 -90.5370 92° East 514 592 39,000  Level FlightAware ADS-B
Sun 05:30:02 PM 42.5810 -90.3260 92° East 514 592 39,000  Level FlightAware ADS-B
Sun 05:31:02 PM 42.5760 -90.1290 92° East 514 592 39,000  Level FlightAware ADS-B
Sun 05:32:07 PM 42.5710 -89.9290 92° East 512 589 39,000  Level FlightAware ADS-B
Sun 05:32:48 PM 42.5670 -89.7900 92° East 512 589 39,000  Level FlightAware ADS-B
Sun 05:33:27 PM 42.5630 -89.6720 93° East 512 589 39,000  Level FlightAware ADS-B
Sun 05:33:56 PM 42.5600 -89.5770 92° East 512 589 39,000  Level FlightAware ADS-B
Sun 05:34:32 PM 42.5570 -89.4550 92° East 511 588 39,000  Level FlightAware ADS-B
Sun 05:35:38 PM 42.5500 -89.2480 93° East 508 585 39,000  Level FlightAware ADS-B
Sun 05:36:36 PM 42.5430 -89.0630 93° East 505 581 39,000  Level FlightAware ADS-B
Sun 05:37:33 PM 42.5370 -88.8870 93° East 503 579 39,000  Level FlightAware ADS-B
Sun 05:38:07 PM 42.5330 -88.7800 93° East 501 577 39,000  Level FlightAware ADS-B
Sun 05:38:39 PM 42.5290 -88.6760 93° East 501 577 39,000  Level FlightAware ADS-B
Sun 05:39:23 PM 42.5230 -88.5390 93° East 500 575 39,000  Level FlightAware ADS-B
Sun 05:40:23 PM 42.5160 -88.3560 93° East 500 575 39,000  Level FlightAware ADS-B
Sun 05:41:28 PM 42.5070 -88.1490 93° East 502 578 39,000  Level FlightAware ADS-B
Sun 05:42:10 PM 42.5020 -88.0230 93° East 503 579 39,000  Level FlightAware ADS-B
Sun 05:42:29 PM 42.5000 -87.9570 92° East 504 580 39,000  Level FlightAware ADS-B
Sun 05:43:35 PM 42.5000 -87.7560 90° East 505 581 39,000  Level FlightAware ADS-B
Sun 05:44:09 PM 42.5000 -87.6490 90° East 506 582 39,000  Level FlightAware ADS-B
Sun 05:44:47 PM 42.4990 -87.5210 91° East 507 583 39,000  Level FlightAware ADS-B
Sun 05:45:26 PM 42.4990 -87.3980 90° East 507 583 39,000  Level FlightAware ADS-B
Sun 05:46:18 PM 42.4980 -87.2340 90° East 509 586 39,000  Level FlightAware ADS-B
Sun 05:46:50 PM 42.4970 -87.1340 91° East 510 587 39,000  Level FlightAware ADS-B
Sun 05:47:48 PM 42.4950 -86.9530 91° East 510 587 39,000  Level FlightAware ADS-B
Sun 05:48:33 PM 42.4940 -86.8060 90° East 510 587 39,000  Level FlightAware ADS-B
Sun 05:49:17 PM 42.4930 -86.6640 90° East 510 587 39,000  Level FlightAware ADS-B
Sun 05:49:54 PM 42.4910 -86.5460 91° East 510 587 39,000  Level FlightAware ADS-B
Sun 05:50:26 PM 42.4900 -86.4460 91° East 510 587 39,000  Level FlightAware ADS-B
Sun 05:50:52 PM 42.4890 -86.3640 91° East 510 587 39,000  Level FlightAware ADS-B
Sun 05:52:00 PM 42.4850 -86.1430 91° East 510 587 39,000  Level FlightAware ADS-B
Sun 05:52:52 PM 42.4830 -85.9770 91° East 511 588 39,000  Level FlightAware ADS-B
Sun 05:53:28 PM 42.4810 -85.8620 91° East 511 588 39,000  Level FlightAware ADS-B
Sun 05:54:25 PM 42.4770 -85.6820 92° East 512 589 39,000  Level FlightAware ADS-B
Sun 05:54:53 PM 42.4750 -85.5900 92° East 513 590 39,000  Level FlightAware ADS-B
Sun 05:55:28 PM 42.4730 -85.4780 91° East 513 590 39,000  Level FlightAware ADS-B
Sun 05:56:28 PM 42.4690 -85.2870 92° East 514 592 39,000  Level FlightAware ADS-B
Sun 05:57:00 PM 42.4660 -85.1820 92° East 514 592 39,000  Level FlightAware ADS-B
Sun 05:57:57 PM 42.4620 -85.0040 92° East 515 593 39,000  Level FlightAware ADS-B
Sun 05:58:32 PM 42.4590 -84.8890 92° East 515 593 39,000  Level FlightAware ADS-B
Sun 05:59:13 PM 42.4550 -84.7550 92° East 516 594 39,000  Level FlightAware ADS-B
Sun 06:00:08 PM 42.4500 -84.5850 92° East 517 595 39,000  Level FlightAware ADS-B
Sun 06:01:01 PM 42.4450 -84.4060 92° East 516 594 39,000  Level FlightAware ADS-B
Sun 06:01:41 PM 42.4410 -84.2820 92° East 516 594 39,000  Level FlightAware ADS-B
Sun 06:02:39 PM 42.4350 -84.0920 92° East 516 594 39,000  Level FlightAware ADS-B
Sun 06:03:03 PM 42.4320 -84.0150 93° East 516 594 39,000  Level FlightAware ADS-B
Sun 06:03:41 PM 42.4280 -83.8930 93° East 516 594 39,000  Level FlightAware ADS-B
Sun 06:04:13 PM 42.4240 -83.7890 93° East 516 594 39,000  Level FlightAware ADS-B
Sun 06:04:43 PM 42.4190 -83.6920 94° East 516 594 39,000  Level FlightAware ADS-B
Sun 06:05:33 PM 42.4080 -83.5330 95° East 517 595 39,000  Level FlightAware ADS-B
Sun 06:06:12 PM 42.3980 -83.4080 96° East 518 596 39,000  Level FlightAware ADS-B
Sun 06:06:45 PM 42.3900 -83.3010 96° East 519 597 39,000  Level FlightAware ADS-B
Sun 06:07:18 PM 42.3830 -83.1970 95° East 519 597 39,000  Level FlightAware ADS-B
Sun 06:08:09 PM 42.3710 -83.0340 96° East 519 597 39,000  Level FlightAware ADS-B
Sun 06:08:44 PM 42.3620 -82.9150 96° East 520 598 39,000  Level FlightAware ADS-B
Sun 06:09:19 PM 42.3540 -82.8040 96° East 519 597 39,000  Level FlightAware ADS-B
Sun 06:10:08 PM 42.3420 -82.6560 96° East 519 597 39,000  Level FlightAware ADS-B
Sun 06:10:58 PM 42.3290 -82.4890 96° East 519 597 39,000  Level FlightAware ADS-B
Sun 06:11:35 PM 42.3200 -82.3710 96° East 520 598 39,000  Level FlightAware ADS-B
Sun 06:12:33 PM 42.3050 -82.1820 96° East 520 598 39,000  Level FlightAware ADS-B
Sun 06:13:19 PM 42.2920 -82.0320 97° East 520 598 39,000  Level FlightAware ADS-B
Sun 06:14:12 PM 42.2780 -81.8660 96° East 520 598 39,000  Level FlightAware ADS-B
Sun 06:15:01 PM 42.2650 -81.7080 96° East 520 598 39,000  Level FlightAware ADS-B
Sun 06:15:38 PM 42.2540 -81.5840 97° East 520 598 39,000  Level FlightAware ADS-B
Sun 06:16:43 PM 42.2350 -81.3750 97° East 520 598 39,000  Level FlightAware ADS-B
Sun 06:17:14 PM 42.2270 -81.2780 96° East 521 600 39,000  Level FlightAware ADS-B
Sun 06:18:06 PM 42.2110 -81.1090 97° East 522 601 39,000  Level FlightAware ADS-B
Sun 06:18:52 PM 42.1980 -80.9610 97° East 523 602 39,000  Level FlightAware ADS-B
Sun 06:19:28 PM 42.1870 -80.8450 97° East 523 602 39,000  Level FlightAware ADS-B
Sun 06:20:25 PM 42.1700 -80.6670 97° East 523 602 39,000  Level FlightAware ADS-B
Sun 06:21:02 PM 42.1590 -80.5490 97° East 524 603 39,000  Level FlightAware ADS-B
Sun 06:21:35 PM 42.1480 -80.4340 97° East 525 604 39,000  Level FlightAware ADS-B
Sun 06:22:09 PM 42.1380 -80.3320 97° East 525 604 39,000  Level FlightAware ADS-B
Sun 06:22:57 PM 42.1220 -80.1760 98° East 525 604 39,000  Level FlightAware ADS-B
Sun 06:23:57 PM 42.1020 -79.9800 98° East 525 604 39,000  Level FlightAware ADS-B
Sun 06:24:26 PM 42.0930 -79.8860 97° East 526 605 39,000  Level FlightAware ADS-B
Sun 06:24:58 PM 42.0820 -79.7780 98° East 527 606 39,000  Level FlightAware ADS-B
Sun 06:25:34 PM 42.0700 -79.6670 98° East 527 606 39,000  Level FlightAware ADS-B
Sun 06:26:14 PM 42.0570 -79.5390 98° East 527 606 39,000  Level FlightAware ADS-B
Sun 06:26:44 PM 42.0460 -79.4410 99° East 526 605 39,000  Level FlightAware ADS-B
Sun 06:27:39 PM 42.0280 -79.2740 98° East 527 606 39,000  Level FlightAware ADS-B
Sun 06:28:20 PM 42.0130 -79.1380 98° East 527 606 39,000  Level FlightAware ADS-B
Sun 06:29:14 PM 41.9940 -78.9600 98° East 528 608 39,000  Level FlightAware ADS-B
Sun 06:29:49 PM 41.9810 -78.8440 99° East 529 609 39,000  Level FlightAware ADS-B
Sun 06:30:19 PM 41.9690 -78.7440 99° East 531 611 39,000  Level FlightAware ADS-B
Sun 06:30:54 PM 41.9560 -78.6300 99° East 532 612 39,000  Level FlightAware ADS-B
Sun 06:31:19 PM 41.9470 -78.5490 98° East 532 612 39,000  Level FlightAware ADS-B
Sun 06:32:19 PM 41.9250 -78.3610 99° East 533 613 39,000  Level FlightAware ADS-B
Sun 06:32:49 PM 41.9140 -78.2590 98° East 533 613 39,000  Level FlightAware ADS-B
Sun 06:33:49 PM 41.8900 -78.0620 99° East 535 616 39,000  Level FlightAware ADS-B
Sun 06:34:34 PM 41.8740 -77.9230 99° East 536 617 39,000  Level FlightAware ADS-B
Sun 06:35:14 PM 41.8470 -77.7860 105° East 540 621 39,000  Level FlightAware ADS-B
Sun 06:35:49 PM 41.8190 -77.6740 109° East 542 624 39,000  Level FlightAware ADS-B
Sun 06:36:44 PM 41.7740 -77.5060 110° East 542 624 39,000  Level FlightAware ADS-B
Sun 06:37:34 PM 41.7300 -77.3400 110° East 542 624 39,000  Level FlightAware ADS-B
Sun 06:38:29 PM 41.6840 -77.1700 110° East 542 624 39,000  Level FlightAware ADS-B
Sun 06:39:04 PM 41.6540 -77.0590 110° East 541 623 39,000  Level FlightAware ADS-B
Sun 06:39:39 PM 41.6270 -76.9600 110° East 541 623 39,000  Level FlightAware ADS-B
Sun 06:40:34 PM 41.5780 -76.7820 110° East 542 624 39,000  Level FlightAware ADS-B
Sun 06:41:28 PM 41.5320 -76.6130 110° East 542 624 39,000  Level FlightAware ADS-B
Sun 06:42:24 PM 41.4800 -76.4240 110° East 541 623 39,000  Level FlightAware ADS-B
Sun 06:42:54 PM 41.4540 -76.3310 110° East 540 621 39,000 -845 Level FlightAware ADS-B
Sun 06:43:35 PM 41.4180 -76.2030 111° Southeast 542 624 38,000 -1,970 Descending FlightAware ADS-B
Sun 06:44:01 PM 41.3950 -76.1190 110° East 543 625 36,800 -3,000 Descending FlightAware ADS-B
Sun 06:44:53 PM 41.3490 -75.9570 111° Southeast 549 632 34,100 -3,185 Descending FlightAware ADS-B
Sun 06:45:22 PM 41.3240 -75.8680 110° East 550 633 32,500 -3,448 Descending FlightAware ADS-B
Sun 06:46:20 PM 41.2710 -75.6850 111° Southeast 553 636 29,100 -3,495 Descending FlightAware ADS-B
Sun 06:47:05 PM 41.2250 -75.5440 113° Southeast 550 633 26,500 -3,221 Descending FlightAware ADS-B
Sun 06:47:55 PM 41.1730 -75.3910 114° Southeast 535 616 24,000 -2,019 Descending FlightAware ADS-B
Sun 06:48:49 PM 41.1190 -75.2310 114° Southeast 521 600 23,000 -732 Descending FlightAware ADS-B
Sun 06:49:17 PM 41.0930 -75.1530 114° Southeast 495 570 23,000  Level FlightAware ADS-B
Sun 06:49:48 PM 41.0650 -75.0720 115° Southeast 458 527 23,000  Level FlightAware ADS-B
Sun 06:50:13 PM 41.0440 -75.0090 114° Southeast 438 504 23,000  Level FlightAware ADS-B
Sun 06:50:44 PM 41.0190 -74.9360 114° Southeast 434 499 23,000  Level FlightAware ADS-B
Sun 06:51:32 PM 40.9900 -74.8140 107° East 431 496 23,000  Level FlightAware ADS-B
Sun 06:52:34 PM 40.9980 -74.6540 86° East 422 486 23,000 -189 Level FlightAware ADS-B
Sun 06:53:07 PM 41.0060 -74.5700 83° East 421 484 22,700 -1,091 Descending FlightAware ADS-B
Sun 06:54:02 PM 41.0190 -74.4320 83° East 413 475 21,400 -1,440 Descending FlightAware ADS-B
Sun 06:54:47 PM 41.0180 -74.3190 91° East 413 475 20,300 -1,680 Descending FlightAware ADS-B
Sun 06:55:17 PM 40.9831 -74.2589 128° Southeast 397 457 19,300 -1,099 Descending FlightAware ADS-B
Sun 06:55:58 PM 40.9192 -74.2175 154° Southeast 373 429 19,000 -247 Descending FlightAware ADS-B
Sun 06:56:30 PM 40.8671 -74.1890 158° South 373 429 19,000 -593 Level FlightAware ADS-B
Sun 06:57:19 PM 40.7890 -74.1472 158° South 370 426 18,200 -1,125 Descending FlightAware ADS-B
Sun 06:57:50 PM 40.7406 -74.1223 159° South 362 417 17,500 -1,377 Descending FlightAware ADS-B
Sun 06:58:20 PM 40.6932 -74.0978 159° South 354 407 16,800 -1,343 Descending FlightAware ADS-B
Sun 06:58:57 PM 40.6402 -74.0660 156° South 355 409 16,000 -1,600 Descending FlightAware ADS-B
Sun 06:59:50 PM 40.5796 -73.9808 133° Southeast 356 410 14,400 -1,875 Descending FlightAware ADS-B
Sun 07:00:33 PM 40.5320 -73.9120 132° Southeast 350 403 13,000 -1,899 Descending FlightAware ADS-B
Sun 07:01:09 PM 40.4930 -73.8550 132° Southeast 338 389 11,900 -1,500 Descending FlightAware ADS-B
Sun 07:01:41 PM 40.4540 -73.8250 150° Southeast 300 345 11,300 -1,308 Descending FlightAware ADS-B
Sun 07:02:27 PM 40.3990 -73.8410 192° South 276 318 10,200 -1,459 Descending FlightAware ADS-B
Sun 07:02:55 PM 40.3660 -73.8570 200° South 278 320 9,500 -1,500 Descending FlightAware ADS-B
Sun 07:03:23 PM 40.3290 -73.8740 199° South 275 316 8,800 -1,375 Descending FlightAware ADS-B
Sun 07:03:43 PM 40.3090 -73.8840 201° Southwest 275 316 8,400 -1,200 Descending FlightAware ADS-B
Sun 07:04:08 PM 40.2770 -73.8990 200° South 282 325 7,900 -526 Descending FlightAware ADS-B
Sun 07:04:40 PM 40.2370 -73.8940 175° South 300 345 7,900 -200 Level FlightAware ADS-B
Sun 07:05:08 PM 40.2130 -73.8490 125° Southeast 308 354 7,700 -667 Descending FlightAware ADS-B
Sun 07:05:16 PM 40.2120 -73.8380 97° East 306 352 7,500 -1,176 Descending FlightAware ADS-B
Sun 07:05:59 PM 40.2350 -73.7670 67° East 291 335 6,700 -1,130 Descending FlightAware ADS-B
Sun 07:06:25 PM 40.2520 -73.7280 60° Northeast 287 330 6,200 -1,222 Descending FlightAware ADS-B
Sun 07:06:53 PM 40.2730 -73.6850 57° Northeast 275 316 5,600 -1,154 Descending FlightAware ADS-B
Sun 07:07:17 PM 40.2970 -73.6640 34° Northeast 265 305 5,200 -960 Descending FlightAware ADS-B
Sun 07:07:43 PM 40.3200 -73.6460 31° Northeast 263 303 4,800 -1,241 Descending FlightAware ADS-B
Sun 07:08:15 PM 40.3580 -73.6160 31° Northeast 260 299 4,000 -831 Descending FlightAware ADS-B
Sun 07:08:48 PM 40.3920 -73.5900 30° Northeast 262 302 3,900 -103 Descending FlightAware ADS-B
Sun 07:09:13 PM 40.4190 -73.5690 31° Northeast 263 303 3,900  Level FlightAware ADS-B
Sun 07:09:35 PM 40.4420 -73.5510 31° Northeast 260 299 3,900  Level FlightAware ADS-B
Sun 07:09:57 PM 40.4650 -73.5340 29° Northeast 260 299 3,900  Level FlightAware ADS-B
Sun 07:10:25 PM 40.4940 -73.5110 31° Northeast 261 300 3,900  Level FlightAware ADS-B
Sun 07:10:51 PM 40.5220 -73.4900 30° Northeast 263 303 3,900  Level FlightAware ADS-B
Sun 07:11:17 PM 40.5480 -73.4700 30° Northeast 260 299 3,900 -158 Level FlightAware ADS-B
Sun 07:11:29 PM 40.5620 -73.4620 23° Northeast 255 293 3,800 -649 Descending FlightAware ADS-B
Sun 07:11:54 PM 40.5910 -73.4610 North 251 289 3,500 -857 Descending FlightAware ADS-B
Sun 07:12:25 PM 40.6260 -73.4610 360° North 250 288 3,000 -632 Descending FlightAware ADS-B
Sun 07:12:51 PM 40.6560 -73.4680 350° North 245 282 2,900 -214 Descending FlightAware ADS-B
Sun 07:13:21 PM 40.6850 -73.4910 329° Northwest 243 280 2,800 -667 Descending FlightAware ADS-B
Sun 07:13:45 PM 40.7080 -73.5100 328° Northwest 238 274 2,300 -1,174 Descending FlightAware ADS-B
Sun 07:14:07 PM 40.7280 -73.5260 329° Northwest 232 267 1,900 -462 Descending FlightAware ADS-B
Sun 07:14:37 PM 40.7540 -73.5480 327° Northwest 206 237 1,900  Level FlightAware ADS-B
Sun 07:14:57 PM 40.7690 -73.5610 327° Northwest 191 220 1,900  Level FlightAware ADS-B
Sun 07:15:23 PM 40.7800 -73.5850 301° West 192 221 1,900  Level FlightAware ADS-B
Sun 07:15:55 PM 40.7820 -73.6240 274° West 199 229 1,900  Level FlightAware ADS-B
Sun 07:16:21 PM 40.7710 -73.6500 241° Southwest 191 220 1,900  Level FlightAware ADS-B
Sun 07:16:49 PM 40.7530 -73.6700 220° Southwest 182 209 1,900  Level FlightAware ADS-B
Sun 07:17:09 PM 40.7380 -73.6830 213° Southwest 182 209 1,900 -300 Level FlightAware ADS-B
Sun 07:17:29 PM 40.7230 -73.6940 209° Southwest 171 197 1,700 -682 Descending FlightAware ADS-B
Sun 07:17:53 PM 40.7080 -73.7060 211° Southwest 155 178 1,400 -750 Descending FlightAware ADS-B
Sun 07:18:17 PM 40.6950 -73.7160 210° Southwest 134 154 1,100 -750 Descending FlightAware ADS-B
Sun 07:18:41 PM 40.6820 -73.7260 210° Southwest 129 148 800 -692 Descending FlightAware ADS-B
Sun 07:19:09 PM 40.6680 -73.7370 211° Southwest 126 145 500 -750 Descending FlightAware ADS-B
Sun 07:19:37 PM 40.6530 -73.7490 211° Southwest 127 146 100 -857 Descending FlightAware ADS-B
Sun 07:20:14 PM 40.6370 -73.7620 212° Southwest 78 90 -162 Descending FlightAware ADS-B

Login

Don't have an account? Register now (free) for customized features, flight alerts, and more!